createdAt,value
2023-05-02T00:01:09.360Z,0
2023-05-02T00:06:09.420Z,0
2023-05-02T00:11:09.325Z,0
2023-05-02T00:16:09.311Z,0
2023-05-02T00:21:09.347Z,0
2023-05-02T00:26:09.369Z,0
2023-05-02T00:31:09.325Z,0
2023-05-02T00:36:09.504Z,0
2023-05-02T00:41:09.366Z,0
2023-05-02T00:46:09.333Z,0
2023-05-02T00:51:09.347Z,0
2023-05-02T00:56:09.336Z,0
2023-05-02T01:01:09.408Z,0
2023-05-02T01:06:09.361Z,0
2023-05-02T01:11:09.328Z,0
2023-05-02T01:16:09.436Z,0
2023-05-02T01:21:09.360Z,0
2023-05-02T01:26:09.326Z,0
2023-05-02T01:31:09.332Z,0
2023-05-02T01:36:09.372Z,0
2023-05-02T01:41:09.323Z,0
2023-05-02T01:46:09.314Z,0
2023-05-02T01:51:09.330Z,0
2023-05-02T01:56:09.374Z,0
2023-05-02T02:01:09.435Z,0
2023-05-02T02:06:09.365Z,0
2023-05-02T02:11:09.320Z,0
2023-05-02T02:16:09.411Z,0
2023-05-02T02:21:09.298Z,0
2023-05-02T02:26:09.344Z,0
2023-05-02T02:31:09.379Z,0
2023-05-02T02:36:09.399Z,0
2023-05-02T02:41:09.328Z,0
2023-05-02T02:46:09.426Z,0
2023-05-02T02:51:09.299Z,0
2023-05-02T02:56:09.386Z,0
2023-05-02T03:01:09.406Z,0
2023-05-02T03:06:09.393Z,0
2023-05-02T03:11:09.350Z,0
2023-05-02T03:16:09.435Z,0
2023-05-02T03:21:09.333Z,0
2023-05-02T03:26:09.470Z,0
2023-05-02T03:31:09.329Z,0
2023-05-02T03:36:09.347Z,0
2023-05-02T03:41:09.351Z,0
2023-05-02T03:46:09.340Z,0
2023-05-02T03:51:09.347Z,0
2023-05-02T03:56:09.393Z,0
2023-05-02T04:01:09.386Z,0
2023-05-02T04:06:09.344Z,0
2023-05-02T04:11:09.407Z,0
2023-05-02T04:16:09.379Z,0
2023-05-02T04:21:09.379Z,265
2023-05-02T04:26:09.414Z,266
2023-05-02T04:31:09.391Z,266
2023-05-02T04:36:09.357Z,269
2023-05-02T04:41:10.385Z,272
2023-05-02T04:46:09.396Z,275
2023-05-02T04:51:09.393Z,277
2023-05-02T04:56:09.366Z,276
2023-05-02T05:01:09.547Z,275
2023-05-02T05:06:09.473Z,280
2023-05-02T05:11:09.354Z,277
2023-05-02T05:16:09.384Z,286
2023-05-02T05:21:09.356Z,286
2023-05-02T05:26:09.437Z,289
2023-05-02T05:31:09.415Z,292
2023-05-02T05:36:09.368Z,295
2023-05-02T05:41:09.391Z,297
2023-05-02T05:46:09.394Z,299
2023-05-02T05:51:09.366Z,300
2023-05-02T05:56:09.360Z,301
2023-05-02T06:01:09.410Z,302
2023-05-02T06:06:09.597Z,304
2023-05-02T06:11:10.686Z,309
2023-05-02T06:16:09.401Z,313
2023-05-02T06:21:09.462Z,310
2023-05-02T06:26:09.323Z,298
2023-05-02T06:31:09.406Z,285
2023-05-02T06:36:09.338Z,289
2023-05-02T06:41:09.335Z,295
2023-05-02T06:46:09.328Z,301
2023-05-02T06:51:09.426Z,305
2023-05-02T06:56:09.423Z,311
2023-05-02T07:01:09.449Z,308
2023-05-02T07:06:09.457Z,306
2023-05-02T07:11:09.425Z,299
2023-05-02T07:16:09.409Z,300
2023-05-02T07:21:09.355Z,306
2023-05-02T07:26:09.402Z,313
2023-05-02T07:31:09.558Z,310
2023-05-02T07:36:09.524Z,307
2023-05-02T07:41:09.417Z,303
2023-05-02T07:46:09.468Z,300
2023-05-02T07:51:09.381Z,296
2023-05-02T07:56:09.347Z,296
2023-05-02T08:01:09.395Z,305
2023-05-02T08:06:09.456Z,303
2023-05-02T08:11:09.372Z,308
2023-05-02T08:16:09.460Z,321
2023-05-02T08:21:09.421Z,325
2023-05-02T08:26:09.508Z,336
2023-05-02T08:31:09.384Z,340
2023-05-02T08:36:09.399Z,338
2023-05-02T08:41:09.387Z,324
2023-05-02T08:46:09.379Z,316
2023-05-02T08:51:09.381Z,336
2023-05-02T08:56:09.415Z,312
2023-05-02T09:01:12.618Z,323
2023-05-02T09:06:12.391Z,369
2023-05-02T09:11:12.460Z,395
2023-05-02T09:16:12.443Z,366
2023-05-02T09:21:13.386Z,386
2023-05-02T09:26:12.398Z,515
2023-05-02T09:31:12.418Z,949
2023-05-02T09:36:12.650Z,812
2023-05-02T09:41:12.428Z,1072
2023-05-02T09:46:12.453Z,964
2023-05-02T09:51:12.396Z,1296
2023-05-02T09:56:12.385Z,1401
2023-05-02T10:01:12.402Z,1171
2023-05-02T10:06:12.400Z,1347
2023-05-02T10:11:12.467Z,1311
2023-05-02T10:16:12.489Z,1549
2023-05-02T10:21:12.415Z,1743
2023-05-02T10:26:12.427Z,1035
2023-05-02T10:31:12.468Z,686
2023-05-02T10:36:12.420Z,500
2023-05-02T10:41:12.414Z,466
2023-05-02T10:46:12.403Z,559
2023-05-02T10:51:12.361Z,552
2023-05-02T10:56:12.455Z,1485
2023-05-02T11:01:12.415Z,665
2023-05-02T11:06:12.433Z,486
2023-05-02T11:11:12.464Z,526
2023-05-02T11:16:12.439Z,522
2023-05-02T11:21:12.392Z,506
2023-05-02T11:26:12.658Z,497
2023-05-02T11:31:12.404Z,432
2023-05-02T11:36:12.453Z,397
2023-05-02T11:41:12.393Z,435
2023-05-02T11:46:12.419Z,440
2023-05-02T11:51:12.515Z,451
2023-05-02T11:56:12.422Z,428
2023-05-02T12:01:12.401Z,413
2023-05-02T12:06:13.650Z,420
2023-05-02T12:11:12.380Z,370
2023-05-02T12:16:12.488Z,345
2023-05-02T12:21:12.441Z,324
2023-05-02T12:26:12.474Z,331
2023-05-02T12:31:12.518Z,322
2023-05-02T12:36:12.408Z,338
2023-05-02T12:41:12.422Z,348
2023-05-02T12:46:12.477Z,339
2023-05-02T12:51:12.549Z,331
2023-05-02T12:56:12.404Z,322
2023-05-02T13:01:12.479Z,345
2023-05-02T13:06:12.472Z,344
2023-05-02T13:11:12.502Z,382
2023-05-02T13:16:12.514Z,349
2023-05-02T13:21:12.476Z,326
2023-05-02T13:26:12.557Z,330
2023-05-02T13:31:12.454Z,341
2023-05-02T13:36:12.460Z,343
2023-05-02T13:41:12.436Z,348
2023-05-02T13:46:12.448Z,335
2023-05-02T13:51:12.501Z,331
2023-05-02T13:56:12.478Z,324
2023-05-02T14:01:12.418Z,306
2023-05-02T14:06:12.469Z,303
2023-05-02T14:11:12.450Z,291
2023-05-02T14:16:12.500Z,289
2023-05-02T14:21:12.474Z,292
2023-05-02T14:26:12.475Z,304
2023-05-02T14:31:12.556Z,329
2023-05-02T14:36:12.509Z,330
2023-05-02T14:41:12.441Z,352
2023-05-02T14:46:12.540Z,346
2023-05-02T14:51:12.445Z,330
2023-05-02T14:56:12.437Z,318
2023-05-02T15:01:12.511Z,308
2023-05-02T15:06:12.509Z,298
2023-05-02T15:17:31.422Z,299
2023-05-02T15:22:31.444Z,292
2023-05-02T15:27:31.420Z,290
2023-05-02T15:32:31.444Z,294
2023-05-02T15:37:31.540Z,289
2023-05-02T15:42:31.646Z,287
2023-05-02T15:47:31.501Z,287
2023-05-02T15:52:31.445Z,285
2023-05-02T15:57:31.438Z,285
2023-05-02T16:02:31.466Z,285
2023-05-02T16:07:31.434Z,285
2023-05-02T16:12:31.438Z,286
2023-05-02T16:17:31.445Z,284
2023-05-02T16:22:31.474Z,284
2023-05-02T16:27:31.487Z,283
2023-05-02T16:32:31.470Z,281
2023-05-02T16:37:31.393Z,282
2023-05-02T16:42:31.454Z,280
2023-05-02T16:47:31.484Z,280
2023-05-02T16:52:31.482Z,278
2023-05-02T16:57:31.425Z,277
2023-05-02T17:02:31.487Z,277
2023-05-02T17:07:31.465Z,275
2023-05-02T17:12:31.461Z,273
2023-05-02T17:17:31.453Z,273
2023-05-02T17:22:31.486Z,273
2023-05-02T17:27:31.426Z,271
2023-05-02T17:32:31.482Z,270
2023-05-02T17:37:31.445Z,269
2023-05-02T17:42:31.521Z,268
2023-05-02T17:47:31.486Z,268
2023-05-02T17:52:31.429Z,266
2023-05-02T17:57:31.405Z,266
2023-05-02T18:02:31.500Z,267
2023-05-02T18:07:31.493Z,0
2023-05-02T18:12:31.450Z,0
2023-05-02T18:17:31.475Z,0
2023-05-02T18:22:31.422Z,0
2023-05-02T18:27:31.436Z,0
2023-05-02T18:32:31.558Z,0
2023-05-02T18:37:31.769Z,0
2023-05-02T18:42:31.457Z,0
2023-05-02T18:47:31.501Z,0
2023-05-02T18:52:31.519Z,0
2023-05-02T18:57:31.481Z,0
2023-05-02T19:02:31.640Z,0
2023-05-02T19:07:31.508Z,0
2023-05-02T19:12:31.477Z,0
2023-05-02T19:17:31.540Z,0
2023-05-02T19:22:31.509Z,0
2023-05-02T19:27:31.501Z,0
2023-05-02T19:32:31.511Z,0
2023-05-02T19:37:31.495Z,0
2023-05-02T19:42:31.509Z,0
2023-05-02T19:47:31.510Z,0
2023-05-02T19:52:31.497Z,0
2023-05-02T19:57:31.464Z,0
2023-05-02T20:02:31.588Z,0
2023-05-02T20:07:31.469Z,0
2023-05-02T20:12:31.482Z,0
2023-05-02T20:17:31.559Z,0
2023-05-02T20:22:31.491Z,0
2023-05-02T20:27:31.496Z,0
2023-05-02T20:32:31.515Z,0
2023-05-02T20:37:31.519Z,0
2023-05-02T20:42:31.481Z,0
2023-05-02T20:47:31.524Z,0
2023-05-02T20:52:31.514Z,0
2023-05-02T20:57:31.492Z,0
2023-05-02T21:02:31.512Z,0
2023-05-02T21:07:31.530Z,0
2023-05-02T21:12:31.506Z,0
2023-05-02T21:17:31.504Z,0
2023-05-02T21:22:31.531Z,0
2023-05-02T21:27:31.518Z,0
2023-05-02T21:32:31.587Z,0
2023-05-02T21:37:31.525Z,0
2023-05-02T21:42:31.472Z,0
2023-05-02T21:47:31.547Z,0
2023-05-02T21:52:31.539Z,0
2023-05-02T21:57:31.543Z,0
2023-05-02T22:02:31.542Z,0
2023-05-02T22:07:31.545Z,0
2023-05-02T22:12:31.499Z,0
2023-05-02T22:17:31.578Z,0
2023-05-02T22:22:31.514Z,0
2023-05-02T22:27:31.473Z,0
2023-05-02T22:32:31.558Z,0
2023-05-02T22:37:31.500Z,0
2023-05-02T22:42:31.516Z,0
2023-05-02T22:47:31.572Z,0
2023-05-02T22:52:31.544Z,0
2023-05-02T22:57:31.494Z,0
2023-05-02T23:02:31.575Z,0
2023-05-02T23:07:31.568Z,0
2023-05-02T23:12:31.496Z,0
2023-05-02T23:17:31.510Z,0
2023-05-02T23:22:31.558Z,0
2023-05-02T23:27:31.566Z,0
2023-05-02T23:32:31.538Z,0
2023-05-02T23:37:31.528Z,0
2023-05-02T23:42:31.529Z,0
2023-05-02T23:47:31.551Z,0
2023-05-02T23:52:31.546Z,0
2023-05-02T23:57:31.484Z,0
